createdAt,value
2019-04-29T00:00:51.298Z,40.12
2019-04-29T00:03:20.722Z,40.07
2019-04-29T00:05:50.189Z,41.80
2019-04-29T00:08:19.864Z,39.94
2019-04-29T00:10:49.268Z,39.90
2019-04-29T00:13:19.452Z,41.25
2019-04-29T00:15:58.594Z,39.85
2019-04-29T00:18:39.169Z,40.02
2019-04-29T00:21:08.560Z,43.72
2019-04-29T00:23:37.912Z,40.85
2019-04-29T00:26:07.309Z,40.90
2019-04-29T00:28:36.674Z,39.84
2019-04-29T00:31:06.328Z,39.96
2019-04-29T00:33:35.697Z,40.31
2019-04-29T00:36:05.101Z,40.66
2019-04-29T00:38:52.350Z,41.34
2019-04-29T00:41:38.627Z,40.96
2019-04-29T00:44:09.947Z,41.16
2019-04-29T00:46:39.369Z,41.12
2019-04-29T00:49:08.887Z,41.04
2019-04-29T00:51:38.300Z,41.18
2019-04-29T00:54:18.272Z,41.24
2019-04-29T00:56:47.590Z,41.21
2019-04-29T00:59:16.920Z,41.27
2019-04-29T01:01:46.359Z,41.41
2019-04-29T01:04:15.781Z,41.53
2019-04-29T01:06:45.143Z,41.76
2019-04-29T01:09:14.693Z,43.53
2019-04-29T01:11:44.102Z,41.09
2019-04-29T01:14:13.468Z,40.83
2019-04-29T01:16:42.840Z,40.86
2019-04-29T01:19:12.268Z,41.39
2019-04-29T01:21:41.647Z,41.71
2019-04-29T01:24:11.075Z,41.40
2019-04-29T01:27:01.034Z,42.32
2019-04-29T01:29:30.587Z,41.55
2019-04-29T01:32:00.065Z,41.04
2019-04-29T01:34:34.306Z,41.52
2019-04-29T01:37:03.674Z,41.23
2019-04-29T01:39:47.277Z,41.74
2019-04-29T01:42:23.711Z,43.28
2019-04-29T01:44:53.141Z,41.08
2019-04-29T01:47:22.509Z,41.18
2019-04-29T01:49:51.863Z,41.14
2019-04-29T01:52:21.304Z,41.49
2019-04-29T01:54:50.763Z,43.58
2019-04-29T01:57:20.163Z,42.53
2019-04-29T01:59:49.621Z,44.80
2019-04-29T02:02:19.060Z,44.17
2019-04-29T02:04:48.497Z,44.01
2019-04-29T02:07:17.948Z,44.64
2019-04-29T02:10:11.431Z,45.38
2019-04-29T02:12:40.802Z,45.46
2019-04-29T02:15:10.221Z,44.88
2019-04-29T02:17:39.590Z,44.24
2019-04-29T02:20:09.217Z,43.87
2019-04-29T02:22:53.635Z,44.71
2019-04-29T02:25:28.829Z,43.97
2019-04-29T02:27:58.196Z,43.40
2019-04-29T02:30:42.180Z,43.04
2019-04-29T02:33:11.533Z,43.00
2019-04-29T02:35:41.137Z,43.38
2019-04-29T02:38:15.266Z,43.27
2019-04-29T02:40:51.709Z,43.40
2019-04-29T02:43:24.845Z,43.19
2019-04-29T02:45:54.300Z,43.33
2019-04-29T02:48:23.711Z,43.67
2019-04-29T02:50:53.149Z,43.67
2019-04-29T02:53:22.592Z,43.73
2019-04-29T02:55:53.754Z,43.59
2019-04-29T02:58:29.090Z,43.21
2019-04-29T03:01:17.500Z,42.90
2019-04-29T03:04:08.646Z,43.23
2019-04-29T03:06:38.113Z,43.94
2019-04-29T03:09:07.947Z,43.86
2019-04-29T03:11:37.303Z,42.74
2019-04-29T03:14:06.673Z,43.19
2019-04-29T03:16:36.034Z,42.48
2019-04-29T03:19:10.182Z,42.98
2019-04-29T03:21:47.541Z,44.47
2019-04-29T03:24:17.012Z,43.44
2019-04-29T03:26:46.348Z,42.99
2019-04-29T03:29:24.980Z,42.43
2019-04-29T03:31:55.770Z,42.27
2019-04-29T03:34:25.334Z,44.13
2019-04-29T03:36:54.816Z,42.07
2019-04-29T03:39:24.242Z,44.22
2019-04-29T03:41:53.662Z,42.15
2019-04-29T03:44:23.051Z,42.57
2019-04-29T03:46:52.407Z,43.76
2019-04-29T03:49:21.781Z,43.70
2019-04-29T03:51:51.131Z,43.03
2019-04-29T03:54:20.508Z,43.86
2019-04-29T03:56:49.860Z,43.78
2019-04-29T03:59:19.215Z,43.64
2019-04-29T04:01:55.977Z,42.93
2019-04-29T04:04:43.008Z,43.45
2019-04-29T04:07:30.319Z,43.07
2019-04-29T04:09:59.776Z,42.69
2019-04-29T04:12:29.130Z,43.17
2019-04-29T04:14:58.511Z,43.06
2019-04-29T04:17:42.899Z,42.72
2019-04-29T04:20:12.682Z,42.95
2019-04-29T04:22:48.577Z,42.85
2019-04-29T04:25:18.312Z,42.76
2019-04-29T04:27:48.165Z,42.96
2019-04-29T04:30:18.892Z,42.98
2019-04-29T04:32:48.339Z,42.87
2019-04-29T04:35:17.779Z,42.99
2019-04-29T04:37:47.144Z,42.14
2019-04-29T04:40:21.005Z,42.72
2019-04-29T04:42:50.546Z,42.77
2019-04-29T04:45:20.001Z,42.18
2019-04-29T04:47:49.354Z,42.75
2019-04-29T04:50:18.908Z,42.84
2019-04-29T04:52:48.271Z,43.29
2019-04-29T04:55:18.777Z,42.15
2019-04-29T04:57:48.174Z,42.59
2019-04-29T05:00:21.885Z,42.76
2019-04-29T05:02:51.307Z,42.72
2019-04-29T05:05:20.685Z,43.17
2019-04-29T05:07:50.048Z,43.19
2019-04-29T05:10:19.749Z,42.14
2019-04-29T05:12:49.112Z,42.89
2019-04-29T05:15:18.567Z,42.96
2019-04-29T05:17:48.117Z,43.07
2019-04-29T05:20:17.588Z,42.59
2019-04-29T05:22:59.499Z,42.47
2019-04-29T05:25:33.537Z,42.41
2019-04-29T05:28:03.590Z,42.50
2019-04-29T05:30:33.360Z,42.31
2019-04-29T05:33:02.794Z,42.18
2019-04-29T05:35:40.215Z,42.19
2019-04-29T05:38:25.427Z,42.07
2019-04-29T05:40:56.833Z,42.09
2019-04-29T05:43:34.004Z,42.17
2019-04-29T05:46:23.305Z,42.23
2019-04-29T05:48:52.988Z,42.07
2019-04-29T05:51:34.478Z,42.11
2019-04-29T05:54:04.645Z,42.26
2019-04-29T05:56:34.030Z,42.13
2019-04-29T05:59:03.461Z,42.12
2019-04-29T06:01:32.848Z,42.24
2019-04-29T06:04:02.273Z,42.18
2019-04-29T06:06:31.654Z,42.30
2019-04-29T06:09:01.013Z,42.30
2019-04-29T06:11:30.464Z,42.23
2019-04-29T06:13:59.798Z,42.11
2019-04-29T06:16:29.181Z,42.12
2019-04-29T06:19:00.413Z,42.16
2019-04-29T06:21:29.635Z,42.14
2019-04-29T06:23:59.408Z,42.18
2019-04-29T06:26:30.073Z,42.17
2019-04-29T06:28:59.474Z,42.03
2019-04-29T06:31:28.891Z,42.40
2019-04-29T06:34:00.645Z,42.56
2019-04-29T06:36:29.419Z,42.55
2019-04-29T06:38:58.805Z,42.85
2019-04-29T06:41:28.160Z,42.66
2019-04-29T06:44:00.687Z,42.53
2019-04-29T06:46:28.592Z,42.39
2019-04-29T06:49:09.603Z,42.38
2019-04-29T06:51:29.120Z,42.38
2019-04-29T06:53:58.495Z,42.33
2019-04-29T06:56:28.004Z,42.25
2019-04-29T06:58:58.645Z,42.20
2019-04-29T07:01:28.007Z,42.20
2019-04-29T07:03:59.859Z,42.18
2019-04-29T07:06:28.458Z,42.18
2019-04-29T07:08:57.821Z,42.13
2019-04-29T07:11:27.200Z,42.21
2019-04-29T07:13:57.681Z,42.28
2019-04-29T07:16:31.769Z,42.14
2019-04-29T07:18:58.675Z,42.12
2019-04-29T07:21:28.072Z,42.24
2019-04-29T07:23:57.509Z,41.96
2019-04-29T07:26:26.895Z,42.10
2019-04-29T07:28:56.316Z,42.18
2019-04-29T07:31:28.256Z,41.80
2019-04-29T07:33:57.923Z,41.79
2019-04-29T07:36:27.867Z,41.59
2019-04-29T07:38:57.235Z,41.69
2019-04-29T07:41:26.673Z,41.51
2019-04-29T07:43:56.098Z,41.57
2019-04-29T07:46:57.005Z,41.70
2019-04-29T07:49:12.756Z,41.54
2019-04-29T07:51:42.687Z,41.43
2019-04-29T07:54:16.130Z,41.31
2019-04-29T07:56:43.684Z,41.36
2019-04-29T07:59:13.128Z,41.42
2019-04-29T08:01:42.569Z,41.41
2019-04-29T08:04:12.014Z,41.34
2019-04-29T08:06:42.977Z,41.40
2019-04-29T08:09:13.125Z,41.88
2019-04-29T08:11:42.836Z,41.41
2019-04-29T08:14:12.638Z,41.32
2019-04-29T08:16:42.098Z,41.60
2019-04-29T08:19:11.581Z,41.64
2019-04-29T08:21:41.025Z,41.29
2019-04-29T08:24:11.604Z,41.33
2019-04-29T08:26:47.504Z,41.95
2019-04-29T08:29:12.640Z,41.51
2019-04-29T08:31:42.004Z,41.14
2019-04-29T08:34:11.463Z,41.31
2019-04-29T08:36:40.861Z,41.17
2019-04-29T08:39:10.352Z,41.15
2019-04-29T08:41:39.790Z,40.99
2019-04-29T08:44:18.212Z,40.99
2019-04-29T08:46:54.032Z,40.73
2019-04-29T08:49:23.450Z,40.96
2019-04-29T08:51:52.825Z,41.03
2019-04-29T08:54:22.280Z,40.95
2019-04-29T08:57:02.796Z,40.93
2019-04-29T08:59:24.506Z,41.03
2019-04-29T09:01:54.158Z,41.07
2019-04-29T09:04:23.550Z,41.04
2019-04-29T09:06:53.046Z,40.99
2019-04-29T09:09:29.118Z,40.99
2019-04-29T09:11:53.466Z,41.09
2019-04-29T09:14:22.814Z,41.04
2019-04-29T09:16:52.196Z,41.15
2019-04-29T09:19:21.613Z,41.01
2019-04-29T09:21:54.829Z,41.17
2019-04-29T09:24:24.184Z,41.12
2019-04-29T09:27:04.988Z,41.25
2019-04-29T09:29:34.601Z,40.83
2019-04-29T09:32:04.559Z,41.02
2019-04-29T09:34:34.106Z,41.62
2019-04-29T09:37:03.535Z,41.02
2019-04-29T09:39:42.974Z,40.87
2019-04-29T09:42:31.061Z,40.80
2019-04-29T09:45:18.624Z,40.76
2019-04-29T09:47:45.549Z,40.73
2019-04-29T09:50:15.052Z,40.66
2019-04-29T09:52:44.439Z,40.99
2019-04-29T09:55:13.975Z,40.62
2019-04-29T09:57:43.362Z,40.84
2019-04-29T10:00:20.763Z,40.68
2019-04-29T10:02:58.281Z,40.64
2019-04-29T10:05:33.014Z,40.69
2019-04-29T10:08:03.527Z,40.66
2019-04-29T10:10:33.039Z,40.48
2019-04-29T10:13:02.445Z,40.63
2019-04-29T10:15:45.701Z,40.39
2019-04-29T10:18:29.637Z,40.34
2019-04-29T10:20:59.319Z,40.45
2019-04-29T10:23:38.250Z,40.75
2019-04-29T10:26:07.748Z,40.39
2019-04-29T10:28:41.703Z,40.58
2019-04-29T10:31:11.325Z,40.58
2019-04-29T10:33:40.799Z,40.52
2019-04-29T10:36:10.171Z,40.31
2019-04-29T10:38:40.458Z,40.50
2019-04-29T10:41:19.013Z,40.36
2019-04-29T10:44:08.690Z,40.32
2019-04-29T10:47:03.276Z,40.22
2019-04-29T10:49:39.162Z,40.24
2019-04-29T10:52:08.082Z,40.36
2019-04-29T10:54:37.450Z,40.26
2019-04-29T10:57:10.514Z,40.11
2019-04-29T10:59:44.571Z,40.13
2019-04-29T11:02:32.062Z,40.29
2019-04-29T11:05:19.709Z,40.18
2019-04-29T11:07:52.547Z,40.18
2019-04-29T11:10:27.898Z,40.16
2019-04-29T11:12:57.476Z,40.23
2019-04-29T11:15:37.263Z,39.84
2019-04-29T11:18:07.102Z,40.14
2019-04-29T11:20:36.599Z,40.05
2019-04-29T11:23:21.369Z,40.03
2019-04-29T11:26:22.772Z,40.04
2019-04-29T11:28:53.108Z,40.08
2019-04-29T11:31:22.574Z,40.12
2019-04-29T11:34:26.178Z,40.22
2019-04-29T11:36:55.614Z,40.29
2019-04-29T11:39:25.049Z,40.20
2019-04-29T11:41:59.210Z,40.19
2019-04-29T11:44:26.631Z,40.29
2019-04-29T11:46:56.882Z,40.30
2019-04-29T11:49:41.197Z,40.21
2019-04-29T11:52:10.638Z,40.34
2019-04-29T11:54:40.012Z,40.23
2019-04-29T11:57:13.087Z,40.24
2019-04-29T11:59:54.487Z,40.25
2019-04-29T12:02:44.947Z,40.44
2019-04-29T12:05:12.158Z,40.38
2019-04-29T12:07:41.721Z,40.34
2019-04-29T12:10:11.732Z,40.55
2019-04-29T12:12:43.625Z,40.38
2019-04-29T12:15:19.877Z,40.49
2019-04-29T12:18:07.484Z,40.38
2019-04-29T12:21:11.462Z,40.51
2019-04-29T12:23:40.797Z,40.52
2019-04-29T12:26:10.569Z,40.34
2019-04-29T12:28:42.868Z,40.53
2019-04-29T12:31:32.366Z,40.48
2019-04-29T12:34:23.055Z,40.52
2019-04-29T12:36:56.768Z,40.57
2019-04-29T12:39:55.007Z,40.70
2019-04-29T12:42:46.461Z,40.61
2019-04-29T12:45:23.610Z,40.61
2019-04-29T12:47:52.978Z,40.68
2019-04-29T12:50:23.123Z,40.71
2019-04-29T12:52:52.661Z,41.18
2019-04-29T12:55:43.735Z,40.82
2019-04-29T12:57:59.532Z,40.75
2019-04-29T13:00:31.491Z,40.93
2019-04-29T13:03:20.055Z,41.08
2019-04-29T13:06:02.594Z,41.03
2019-04-29T13:08:36.181Z,41.09
2019-04-29T13:11:06.954Z,41.14
2019-04-29T13:13:36.308Z,41.24
2019-04-29T13:16:23.773Z,41.34
2019-04-29T13:19:20.581Z,41.40
2019-04-29T13:21:49.571Z,41.32
2019-04-29T13:24:26.530Z,41.82
2019-04-29T13:26:50.093Z,41.95
2019-04-29T13:29:27.008Z,41.37
2019-04-29T13:31:50.687Z,41.50
2019-04-29T13:34:33.245Z,41.39
2019-04-29T13:37:07.383Z,41.47
2019-04-29T13:39:39.593Z,41.38
2019-04-29T13:42:09.214Z,42.19
2019-04-29T13:44:41.801Z,42.19
2019-04-29T13:47:29.213Z,41.54
2019-04-29T13:50:17.267Z,41.46
2019-04-29T13:52:33.354Z,41.48
2019-04-29T13:55:16.563Z,41.49
2019-04-29T13:57:33.932Z,41.55
2019-04-29T14:00:24.662Z,41.60
2019-04-29T14:02:59.351Z,41.62
2019-04-29T14:05:32.510Z,41.67
2019-04-29T14:08:00.019Z,42.32
2019-04-29T14:10:29.446Z,41.93
2019-04-29T14:13:09.620Z,41.86
2019-04-29T14:15:33.999Z,42.17
2019-04-29T14:18:01.529Z,41.86
2019-04-29T14:20:31.343Z,42.00
2019-04-29T14:23:00.694Z,42.05
2019-04-29T14:25:30.039Z,41.95
2019-04-29T14:27:59.444Z,41.98
2019-04-29T14:30:38.546Z,41.91
2019-04-29T14:33:02.066Z,41.86
2019-04-29T14:35:49.959Z,41.91
2019-04-29T14:38:19.322Z,41.91
2019-04-29T14:40:48.747Z,41.89
2019-04-29T14:43:35.851Z,42.12
2019-04-29T14:46:30.735Z,42.20
2019-04-29T14:49:07.290Z,42.19
2019-04-29T14:51:38.036Z,42.05
2019-04-29T14:54:07.667Z,42.08
2019-04-29T14:56:37.166Z,42.58
2019-04-29T14:59:07.624Z,42.07
2019-04-29T15:01:45.842Z,42.28
2019-04-29T15:04:18.963Z,42.12
2019-04-29T15:06:48.328Z,42.15
2019-04-29T15:09:19.985Z,42.68
2019-04-29T15:12:03.423Z,42.21
2019-04-29T15:15:00.786Z,42.24
2019-04-29T15:17:40.411Z,42.44
2019-04-29T15:20:18.696Z,42.30
2019-04-29T15:22:48.095Z,42.43
2019-04-29T15:25:21.012Z,42.55
2019-04-29T15:27:48.622Z,42.86
2019-04-29T15:30:18.327Z,42.51
2019-04-29T15:32:47.710Z,42.86
2019-04-29T15:35:19.922Z,42.73
2019-04-29T15:37:48.322Z,42.68
2019-04-29T15:40:20.672Z,42.80
2019-04-29T15:42:52.737Z,42.65
2019-04-29T15:45:19.905Z,44.09
2019-04-29T15:47:49.357Z,42.75
2019-04-29T15:50:19.625Z,43.59
2019-04-29T15:52:49.129Z,43.09
2019-04-29T15:55:18.607Z,43.16
2019-04-29T15:57:50.421Z,43.08
2019-04-29T16:00:22.523Z,43.71
2019-04-29T16:02:51.285Z,42.83
2019-04-29T16:06:19.284Z,42.96
2019-04-29T16:08:45.798Z,43.06
2019-04-29T16:11:33.724Z,42.89
2019-04-29T16:14:09.592Z,42.79
2019-04-29T16:16:35.965Z,42.79
2019-04-29T16:19:08.130Z,42.82
2019-04-29T16:21:39.058Z,42.92
2019-04-29T16:24:24.920Z,43.42
2019-04-29T16:26:38.968Z,43.47
2019-04-29T16:29:13.229Z,43.00
2019-04-29T16:31:39.429Z,43.42
2019-04-29T16:34:08.821Z,43.52
2019-04-29T16:36:43.803Z,44.52
2019-04-29T16:39:09.590Z,43.27
2019-04-29T16:42:01.293Z,43.22
2019-04-29T16:44:36.247Z,43.81
2019-04-29T16:47:07.277Z,43.79
2019-04-29T16:49:33.180Z,43.76
2019-04-29T16:52:07.280Z,43.20
2019-04-29T16:54:36.818Z,43.53
2019-04-29T16:57:07.422Z,43.79
2019-04-29T16:59:36.833Z,43.44
2019-04-29T17:02:06.269Z,43.30
2019-04-29T17:04:35.628Z,43.76
2019-04-29T17:07:13.827Z,43.55
2019-04-29T17:09:58.148Z,44.35
2019-04-29T17:12:35.695Z,43.93
2019-04-29T17:15:14.822Z,44.19
2019-04-29T17:17:31.488Z,44.53
2019-04-29T17:20:03.493Z,46.30
2019-04-29T17:22:35.601Z,46.30
2019-04-29T17:25:04.333Z,44.18
2019-04-29T17:27:50.854Z,45.53
2019-04-29T17:30:38.416Z,49.37
2019-04-29T17:33:26.597Z,46.67
2019-04-29T17:35:47.853Z,51.16
2019-04-29T17:38:18.083Z,46.97
2019-04-29T17:40:51.116Z,48.51
2019-04-29T17:43:38.288Z,48.88
2019-04-29T17:46:25.748Z,50.28
2019-04-29T17:49:02.776Z,49.68
2019-04-29T17:51:33.967Z,47.38
2019-04-29T17:54:05.404Z,46.95
2019-04-29T17:56:47.781Z,45.97
2019-04-29T17:59:40.733Z,44.55
2019-04-29T18:02:29.318Z,46.58
2019-04-29T18:05:16.891Z,47.50
2019-04-29T18:07:52.092Z,49.72
2019-04-29T18:10:35.102Z,48.34
2019-04-29T18:13:06.559Z,48.29
2019-04-29T18:15:57.924Z,52.22
2019-04-29T18:18:17.687Z,49.93
2019-04-29T18:21:43.273Z,55.01
2019-04-29T18:24:19.991Z,52.06
2019-04-29T18:26:56.935Z,56.28
2019-04-29T18:29:26.487Z,55.31
2019-04-29T18:31:56.127Z,52.44
2019-04-29T18:34:29.375Z,52.90
2019-04-29T18:37:00.443Z,52.89
2019-04-29T18:39:31.612Z,49.55
2019-04-29T18:42:03.363Z,48.29
2019-04-29T18:44:32.658Z,50.65
2019-04-29T18:47:02.219Z,54.18
2019-04-29T18:49:31.874Z,52.93
2019-04-29T18:52:02.143Z,52.15
2019-04-29T18:54:32.638Z,50.47
2019-04-29T18:57:02.135Z,54.39
2019-04-29T18:59:33.436Z,48.79
2019-04-29T19:02:07.734Z,50.39
2019-04-29T19:04:46.819Z,50.62
2019-04-29T19:07:17.126Z,56.12
2019-04-29T19:09:47.237Z,57.77
2019-04-29T19:12:16.898Z,51.85
2019-04-29T19:14:47.804Z,58.76
2019-04-29T19:17:17.513Z,58.29
2019-04-29T19:19:47.001Z,59.45
2019-04-29T19:22:16.509Z,58.46
2019-04-29T19:24:48.025Z,59.21
2019-04-29T19:27:17.461Z,59.91
2019-04-29T19:29:47.037Z,60.50
2019-04-29T19:32:18.834Z,62.30
2019-04-29T19:34:50.202Z,63.83
2019-04-29T19:37:19.280Z,55.14
2019-04-29T19:39:52.497Z,61.86
2019-04-29T19:42:29.085Z,63.54
2019-04-29T19:44:51.185Z,64.20
2019-04-29T19:47:20.754Z,64.86
2019-04-29T19:49:50.252Z,66.83
2019-04-29T19:52:30.502Z,57.19
2019-04-29T19:54:50.962Z,61.21
2019-04-29T19:57:20.487Z,61.46
2019-04-29T19:59:51.950Z,65.38
2019-04-29T20:02:22.173Z,64.05
2019-04-29T20:05:04.998Z,63.81
2019-04-29T20:07:40.905Z,62.68
2019-04-29T20:10:08.355Z,64.45
2019-04-29T20:12:36.948Z,63.74
2019-04-29T20:15:08.497Z,63.34
2019-04-29T20:18:06.558Z,65.42
2019-04-29T20:20:40.343Z,64.67
2019-04-29T20:23:10.211Z,66.18
2019-04-29T20:25:40.051Z,66.96
2019-04-29T20:28:17.042Z,68.53
2019-04-29T20:30:41.119Z,70.72
2019-04-29T20:33:12.648Z,68.87
2019-04-29T20:35:45.399Z,69.29
2019-04-29T20:38:15.550Z,69.67
2019-04-29T20:40:46.441Z,69.85
2019-04-29T20:43:16.230Z,69.15
2019-04-29T20:45:46.115Z,68.32
2019-04-29T20:48:19.370Z,69.13
2019-04-29T20:50:52.818Z,71.10
2019-04-29T20:53:30.889Z,68.70
2019-04-29T20:56:10.429Z,68.63
2019-04-29T20:58:33.224Z,69.29
2019-04-29T21:01:10.669Z,68.08
2019-04-29T21:03:36.071Z,69.31
2019-04-29T21:06:06.307Z,70.16
2019-04-29T21:08:35.958Z,68.45
2019-04-29T21:11:14.338Z,67.44
2019-04-29T21:13:55.596Z,69.00
2019-04-29T21:16:30.872Z,68.64
2019-04-29T21:19:08.820Z,69.95
2019-04-29T21:21:41.875Z,68.96
2019-04-29T21:24:13.720Z,69.55
2019-04-29T21:26:44.461Z,61.33
2019-04-29T21:29:18.121Z,68.89
2019-04-29T21:31:45.977Z,71.38
2019-04-29T21:34:17.494Z,72.20
2019-04-29T21:36:55.413Z,70.88
2019-04-29T21:39:37.915Z,71.12
2019-04-29T21:42:28.090Z,70.38
2019-04-29T21:44:58.696Z,69.05
2019-04-29T21:47:32.042Z,71.63
2019-04-29T21:49:59.161Z,69.66
2019-04-29T21:52:28.676Z,68.36
2019-04-29T21:54:58.201Z,71.13
2019-04-29T21:57:27.716Z,66.90
2019-04-29T21:59:57.244Z,70.90
2019-04-29T22:02:26.819Z,70.86
2019-04-29T22:04:56.408Z,71.59
2019-04-29T22:07:25.960Z,72.16
2019-04-29T22:09:55.708Z,71.73
2019-04-29T22:12:25.236Z,69.71
2019-04-29T22:14:56.441Z,71.87
2019-04-29T22:17:32.865Z,72.48
2019-04-29T22:20:03.946Z,72.25
2019-04-29T22:22:30.661Z,72.52
2019-04-29T22:25:07.988Z,70.49
2019-04-29T22:27:34.220Z,68.62
2019-04-29T22:30:03.055Z,71.21
2019-04-29T22:32:32.558Z,71.70
2019-04-29T22:35:02.069Z,71.28
2019-04-29T22:37:34.680Z,72.69
2019-04-29T22:40:04.379Z,73.03
2019-04-29T22:43:05.137Z,72.30
2019-04-29T22:45:33.845Z,73.37
2019-04-29T22:48:14.189Z,73.56
2019-04-29T22:50:33.706Z,73.17
2019-04-29T22:53:07.362Z,70.70
2019-04-29T22:55:38.795Z,71.68
2019-04-29T22:58:09.728Z,70.16
2019-04-29T23:00:38.664Z,70.57
2019-04-29T23:03:08.257Z,73.47
2019-04-29T23:05:38.031Z,72.10
2019-04-29T23:08:07.696Z,72.59
2019-04-29T23:10:37.213Z,72.65
2019-04-29T23:13:07.237Z,75.44
2019-04-29T23:15:36.750Z,72.66
2019-04-29T23:18:06.968Z,75.39
2019-04-29T23:20:55.345Z,72.11
2019-04-29T23:23:33.487Z,71.94
2019-04-29T23:26:04.157Z,73.72
2019-04-29T23:28:33.260Z,72.75
2019-04-29T23:31:02.877Z,73.16
2019-04-29T23:33:32.405Z,75.53
2019-04-29T23:36:01.913Z,75.99
2019-04-29T23:38:31.433Z,74.70
2019-04-29T23:41:00.948Z,73.04
2019-04-29T23:43:30.559Z,73.97
2019-04-29T23:46:00.652Z,75.80
2019-04-29T23:48:38.581Z,72.36
2019-04-29T23:51:01.556Z,68.12
2019-04-29T23:53:31.083Z,74.74
2019-04-29T23:56:05.590Z,74.13
2019-04-29T23:58:46.774Z,74.38
